Moscow, Iowa
Current Conditions -  °F | °C
As of 10:15 PM on Tuesday 27 Jan 2015 (Local Time) from KMUT Reporting Station
Overcast Overcast  
Wind Chill: 20°   Ceiling: 1300
Heat Index: 28°   Visibility: 10mi
Dew Point: 23°   Wind: 8mph
Humidity: 80%   Direction: 150°SSE
Pressure: 30.25"   Gusts: NA
Location:  41.58°N, 91.08°W
Report Text: KMUT 280415Z AUTO 15007KT 10SM OVC013 M02/M05 A3025 RMK AO2
Loading
Personal Weather Stations






























Interactive Weather Map New forecast layout! Learn more

10-Day Weather Forecast

Advertisements
Track Severe Weather on mobile